Time;durP1;ratioP1;P1;durP2;ratioP2;P2;SDS_P1;SDS_P2;PMS_P1;PMS_P2;Temp;Humidity;BMP_temperature;BMP_pressure;BME280_temperature;BME280_humidity;BME280_pressure;Samples;Min_cycle;Max_cycle;Signal;HPM_P1;HPM_P2
2022/07/23 00:01:23;;;;;;;20.27;19.08;;;;;;;-141.02;100.00;55844.97;5136449;27;20192;-82
2022/07/23 00:03:51;;;;;;;20.60;19.40;;;;;;;-141.02;100.00;55844.97;5136410;27;20251;-82
2022/07/23 00:06:18;;;;;;;19.88;18.67;;;;;;;-141.02;100.00;55844.97;5136566;27;20198;-80
2022/07/23 00:08:45;;;;;;;20.48;19.27;;;;;;;-141.02;100.00;55844.97;5136161;27;20234;-83
2022/07/23 00:11:14;;;;;;;20.33;19.13;;;;;;;-141.02;100.00;55844.97;5136314;27;20198;-82
2022/07/23 00:13:41;;;;;;;20.33;19.13;;;;;;;-141.02;100.00;55844.97;5136282;27;20682;-81
2022/07/23 00:16:08;;;;;;;20.30;19.10;;;;;;;-141.02;100.00;55844.97;5136141;27;20228;-82
2022/07/23 00:18:35;;;;;;;20.50;19.30;;;;;;;-141.02;100.00;55844.97;5135979;27;20631;-82
2022/07/23 00:21:03;;;;;;;20.63;19.42;;;;;;;-141.02;100.00;55844.97;5136856;27;20224;-83
2022/07/23 00:23:31;;;;;;;19.73;18.63;;;;;;;-141.02;100.00;55844.97;5136033;27;20223;-81
2022/07/23 00:25:58;;;;;;;19.75;18.65;;;;;;;-141.02;100.00;55844.97;5135704;27;20253;-82
2022/07/23 00:28:26;;;;;;;19.60;18.50;;;;;;;-141.02;100.00;55844.97;5135614;27;20255;-82
2022/07/23 00:30:53;;;;;;;19.77;18.67;;;;;;;-141.02;100.00;55844.97;5135771;27;20195;-82
2022/07/23 00:33:20;;;;;;;19.80;18.70;;;;;;;-141.02;100.00;55844.97;5135561;27;20749;-79
2022/07/23 00:35:48;;;;;;;19.80;18.70;;;;;;;-141.02;100.00;55844.97;5135721;27;20302;-80
2022/07/23 00:38:15;;;;;;;19.45;18.35;;;;;;;-141.02;100.00;55844.97;5135797;27;20249;-81
2022/07/23 00:40:42;;;;;;;19.63;18.52;;;;;;;-141.02;100.00;55844.97;5135127;27;20281;-81
2022/07/23 00:43:09;;;;;;;19.15;18.13;;;;;;;-141.02;100.00;55844.97;5135280;27;20196;-81
2022/07/23 00:45:37;;;;;;;19.08;18.08;;;;;;;-141.02;100.00;55844.97;5135585;27;20693;-81
2022/07/23 00:48:04;;;;;;;18.65;17.65;;;;;;;-141.02;100.00;55844.97;5135502;27;20693;-81
2022/07/23 00:50:32;;;;;;;18.30;17.30;;;;;;;-141.02;100.00;55844.97;5135159;27;20188;-81
2022/07/23 00:52:59;;;;;;;18.77;17.77;;;;;;;-141.02;100.00;55844.97;5135097;27;20192;-80
2022/07/23 00:55:26;;;;;;;18.52;17.52;;;;;;;-141.02;100.00;55844.97;5135027;27;20275;-80
2022/07/23 00:57:54;;;;;;;18.92;17.92;;;;;;;-141.02;100.00;55844.97;5135063;27;20196;-81
2022/07/23 01:00:22;;;;;;;18.73;17.73;;;;;;;-141.02;100.00;55844.97;5135210;27;20203;-80
2022/07/23 01:02:50;;;;;;;18.80;17.80;;;;;;;-141.02;100.00;55844.97;5134939;27;20254;-80
2022/07/23 01:05:21;;;;;;;18.17;17.27;;;;;;;-141.02;100.00;55844.97;5134899;27;20275;-81
2022/07/23 01:07:49;;;;;;;18.58;17.58;;;;;;;-141.02;100.00;55844.97;5135897;27;20299;-80
2022/07/23 01:10:32;;;;;;;18.75;17.77;;;;;;;-141.02;100.00;55844.97;5134742;27;20192;-82
2022/07/23 01:12:59;;;;;;;17.98;17.08;;;;;;;-141.02;100.00;55844.97;5135375;27;20579;-81
2022/07/23 01:15:26;;;;;;;18.40;17.50;;;;;;;-141.02;100.00;55844.97;5134909;27;20196;-81
2022/07/23 01:17:55;;;;;;;18.17;17.27;;;;;;;-141.02;100.00;55844.97;5134571;27;20224;-81
2022/07/23 01:20:22;;;;;;;17.70;16.80;;;;;;;-141.02;100.00;55844.97;5134608;27;20239;-79
2022/07/23 01:22:51;;;;;;;17.75;16.95;;;;;;;-141.02;100.00;55844.97;5134820;27;20196;-81
2022/07/23 01:25:18;;;;;;;17.67;16.88;;;;;;;-141.02;100.00;55844.97;5134477;27;20195;-81
2022/07/23 01:27:45;;;;;;;19.10;18.10;;;;;;;-141.02;100.00;55844.97;5134432;27;20228;-81
2022/07/23 01:30:13;;;;;;;17.80;16.90;;;;;;;-141.02;100.00;55844.97;5134605;27;20237;-81
2022/07/23 01:32:40;;;;;;;17.27;16.48;;;;;;;-141.02;100.00;55844.97;5134309;27;20638;-81
2022/07/23 01:35:09;;;;;;;17.00;16.20;;;;;;;-141.02;100.00;55844.97;5134216;27;20658;-82
2022/07/23 01:37:36;;;;;;;17.15;16.35;;;;;;;-141.02;100.00;55844.97;5134534;27;20224;-83
2022/07/23 01:40:06;;;;;;;17.05;16.25;;;;;;;-141.02;100.00;55844.97;5133892;27;20230;-81
2022/07/23 01:42:33;;;;;;;17.42;16.63;;;;;;;-141.02;100.00;55844.97;5134405;27;20260;-81
2022/07/23 01:45:01;;;;;;;16.92;16.17;;;;;;;-141.02;100.00;55844.97;5133992;27;20227;-81
2022/07/23 01:47:28;;;;;;;17.30;16.50;;;;;;;-141.02;100.00;55844.97;5133892;27;20616;-81
2022/07/23 01:49:55;;;;;;;17.38;16.58;;;;;;;-141.02;100.00;55844.97;5133988;27;20189;-81
2022/07/23 01:52:22;;;;;;;17.40;16.60;;;;;;;-141.02;100.00;55844.97;5133830;27;20202;-82
2022/07/23 01:54:49;;;;;;;17.40;16.60;;;;;;;-141.02;100.00;55844.97;5134176;27;20323;-83
2022/07/23 01:57:17;;;;;;;17.40;16.60;;;;;;;-141.02;100.00;55844.97;5134159;27;20228;-82
2022/07/23 01:59:44;;;;;;;18.00;17.10;;;;;;;-141.02;100.00;55844.97;5134095;27;20224;-82
2022/07/23 02:02:11;;;;;;;18.80;17.88;;;;;;;-141.02;100.00;55844.97;5133742;27;20738;-83
2022/07/23 02:04:39;;;;;;;17.92;17.02;;;;;;;-141.02;100.00;55844.97;5133663;27;20196;-82
2022/07/23 02:07:06;;;;;;;18.08;17.17;;;;;;;-141.02;100.00;55844.97;5133604;27;20227;-81
2022/07/23 02:09:34;;;;;;;18.60;17.60;;;;;;;-141.02;100.00;55844.97;5132991;27;20232;-81
2022/07/23 02:12:01;;;;;;;18.10;17.20;;;;;;;-141.02;100.00;55844.97;5133607;27;20662;-83
2022/07/23 02:14:30;;;;;;;18.05;17.15;;;;;;;-141.02;100.00;55844.97;5133571;27;20193;-81
2022/07/23 02:16:57;;;;;;;17.50;16.60;;;;;;;-141.02;100.00;55844.97;5133469;27;20231;-85
2022/07/23 02:19:24;;;;;;;18.08;17.17;;;;;;;-141.02;100.00;55844.97;5133520;27;20723;-82
2022/07/23 02:21:51;;;;;;;18.08;17.17;;;;;;;-141.02;100.00;55844.97;5133682;27;20279;-83
2022/07/23 02:24:18;;;;;;;18.13;17.23;;;;;;;-141.02;100.00;55844.97;5133469;27;20189;-84
2022/07/23 02:26:45;;;;;;;18.08;17.17;;;;;;;-141.02;100.00;55844.97;5133336;27;20567;-80
2022/07/23 02:29:13;;;;;;;18.52;17.55;;;;;;;-141.02;100.00;55844.97;5133196;27;20732;-84
2022/07/23 02:31:41;;;;;;;17.90;17.00;;;;;;;-141.02;100.00;55844.97;5133284;27;20228;-83
2022/07/23 02:34:11;;;;;;;18.20;17.30;;;;;;;-141.02;100.00;55844.97;5133514;27;20253;-81
2022/07/23 02:36:39;;;;;;;18.40;17.50;;;;;;;-141.02;100.00;55844.97;5133637;27;20283;-82
2022/07/23 02:39:06;;;;;;;18.50;17.60;;;;;;;-141.02;100.00;55844.97;5133196;27;20196;-81
2022/07/23 02:41:33;;;;;;;18.23;17.33;;;;;;;-141.02;100.00;55844.97;5133217;27;20184;-82
2022/07/23 02:44:00;;;;;;;18.73;17.73;;;;;;;-141.02;100.00;55844.97;5133111;27;20279;-82
2022/07/23 02:46:27;;;;;;;18.15;17.25;;;;;;;-141.02;100.00;55844.97;5133088;27;20282;-81
2022/07/23 02:48:55;;;;;;;19.05;18.05;;;;;;;-141.02;100.00;55844.97;5132915;27;20267;-81
2022/07/23 02:51:22;;;;;;;18.20;17.30;;;;;;;-141.02;100.00;55844.97;5133028;27;20662;-81
2022/07/23 02:53:49;;;;;;;18.40;17.50;;;;;;;-141.02;100.00;55844.97;5133278;28;20271;-80
2022/07/23 02:56:16;;;;;;;18.48;17.58;;;;;;;-141.02;100.00;55844.97;5133284;27;20252;-80
2022/07/23 02:58:43;;;;;;;18.35;17.45;;;;;;;-141.02;100.00;55844.97;5132969;28;20280;-81
2022/07/23 03:01:10;;;;;;;17.50;16.70;;;;;;;-141.02;100.00;55844.97;5132875;28;20241;-81
2022/07/23 03:03:38;;;;;;;17.23;16.42;;;;;;;-141.02;100.00;55844.97;5133187;28;20192;-81
2022/07/23 03:06:07;;;;;;;17.50;16.70;;;;;;;-141.02;100.00;55844.97;5132854;28;20188;-81
2022/07/23 03:08:34;;;;;;;16.98;16.17;;;;;;;-141.02;100.00;55844.97;5132777;27;20721;-80
2022/07/23 03:11:01;;;;;;;17.58;16.77;;;;;;;-141.02;100.00;55844.97;5133108;28;20188;-80
2022/07/23 03:13:29;;;;;;;17.65;16.85;;;;;;;-141.02;100.00;55844.97;5133132;27;20192;-81
2022/07/23 03:15:56;;;;;;;17.70;16.90;;;;;;;-141.02;100.00;55844.97;5133068;27;20283;-81
2022/07/23 03:18:23;;;;;;;17.13;16.33;;;;;;;-141.02;100.00;55844.97;5132815;28;20235;-81
2022/07/23 03:20:50;;;;;;;17.13;16.33;;;;;;;-141.02;100.00;55844.97;5135245;27;20196;-81
2022/07/23 03:23:19;;;;;;;16.88;16.17;;;;;;;-141.02;100.00;55844.97;5136862;27;20196;-81
2022/07/23 03:25:48;;;;;;;17.30;16.50;;;;;;;-141.02;100.00;55844.97;5137118;27;20317;-81
2022/07/23 03:28:15;;;;;;;17.60;16.80;;;;;;;-141.02;100.00;55844.97;5137062;27;20311;-81
2022/07/23 03:30:42;;;;;;;17.10;16.30;;;;;;;-141.02;100.00;55844.97;5136720;27;20246;-81
2022/07/23 03:33:09;;;;;;;17.15;16.35;;;;;;;-141.02;100.00;55844.97;5136868;27;20318;-81
2022/07/23 03:35:36;;;;;;;17.48;16.67;;;;;;;-141.02;100.00;55844.97;5136667;27;20696;-81
2022/07/23 03:38:03;;;;;;;17.50;16.70;;;;;;;-141.02;100.00;55844.97;5136809;27;20227;-81
2022/07/23 03:40:32;;;;;;;17.60;16.80;;;;;;;-141.02;100.00;55844.97;5136469;27;20232;-82
2022/07/23 03:42:59;;;;;;;17.08;16.27;;;;;;;-141.02;100.00;55844.97;5136451;27;20213;-81
2022/07/23 03:45:26;;;;;;;16.88;16.17;;;;;;;-141.02;100.00;55844.97;5136370;27;20678;-82
2022/07/23 03:47:53;;;;;;;17.05;16.25;;;;;;;-141.02;100.00;55844.97;5136332;27;20658;-82
2022/07/23 03:50:21;;;;;;;17.33;16.52;;;;;;;-141.02;100.00;55844.97;5136299;27;20196;-81
2022/07/23 03:52:48;;;;;;;17.50;16.70;;;;;;;-141.02;100.00;55844.97;5136347;27;20232;-81
2022/07/23 03:55:15;;;;;;;17.67;16.77;;;;;;;-141.02;100.00;55844.97;5136246;27;20690;-81
2022/07/23 03:57:44;;;;;;;18.00;17.10;;;;;;;-141.02;100.00;55844.97;5136530;27;20265;-81
2022/07/23 04:00:12;;;;;;;18.23;17.33;;;;;;;-141.02;100.00;55844.97;5136437;27;20214;-81
2022/07/23 04:02:40;;;;;;;18.05;17.10;;;;;;;-141.02;100.00;55844.97;5136110;27;20202;-81
2022/07/23 04:05:08;;;;;;;18.70;17.70;;;;;;;-141.02;100.00;55844.97;5136413;27;20192;-82
2022/07/23 04:07:35;;;;;;;18.23;17.23;;;;;;;-141.02;100.00;55844.97;5136305;27;20275;-81
2022/07/23 04:10:02;;;;;;;18.80;17.80;;;;;;;-141.02;100.00;55844.97;5135958;27;20232;-81
2022/07/23 04:12:29;;;;;;;18.77;17.70;;;;;;;-141.02;100.00;55844.97;5135936;27;20734;-81
2022/07/23 04:14:58;;;;;;;19.25;18.15;;;;;;;-141.02;100.00;55844.97;5135916;27;20279;-81
2022/07/23 04:17:25;;;;;;;18.58;17.58;;;;;;;-141.02;100.00;55844.97;5136148;27;20231;-81
2022/07/23 04:19:52;;;;;;;20.15;18.95;;;;;;;-141.02;100.00;55844.97;5135769;27;20745;-82
2022/07/23 04:22:19;;;;;;;20.80;19.50;;;;;;;-141.02;100.00;55844.97;5136026;27;20228;-81
2022/07/23 04:24:46;;;;;;;19.88;18.67;;;;;;;-141.02;100.00;55844.97;5135641;27;20285;-82
2022/07/23 04:27:13;;;;;;;20.30;19.10;;;;;;;-141.02;100.00;55844.97;5135644;27;20585;-82
2022/07/23 04:29:40;;;;;;;20.23;18.92;;;;;;;-141.02;100.00;55844.97;5135782;27;20279;-82
2022/07/23 04:32:08;;;;;;;20.83;19.52;;;;;;;-141.02;100.00;55844.97;5134550;27;20193;-82
2022/07/23 04:34:35;;;;;;;20.65;19.35;;;;;;;-141.02;100.00;55844.97;5135509;27;20193;-82
2022/07/23 04:37:02;;;;;;;20.88;19.58;;;;;;;-141.02;100.00;55844.97;5135964;27;20681;-82
2022/07/23 04:39:30;;;;;;;21.35;19.95;;;;;;;-141.02;100.00;55844.97;5135465;27;20285;-82
2022/07/23 04:41:57;;;;;;;21.13;19.83;;;;;;;-141.02;100.00;55844.97;5135357;27;20276;-83
2022/07/23 04:44:24;;;;;;;21.30;20.00;;;;;;;-141.02;100.00;55844.97;5135870;27;20229;-82
2022/07/23 04:46:51;;;;;;;21.15;19.85;;;;;;;-141.02;100.00;55844.97;5135601;27;20327;-82
2022/07/23 04:49:20;;;;;;;21.75;20.42;;;;;;;-141.02;100.00;55844.97;5135416;27;20247;-82
2022/07/23 04:51:47;;;;;;;21.30;20.00;;;;;;;-141.02;100.00;55844.97;5135151;27;20224;-81
2022/07/23 04:54:14;;;;;;;22.50;21.10;;;;;;;-141.02;100.00;55844.97;5135010;27;20700;-82
2022/07/23 04:56:41;;;;;;;21.98;20.58;;;;;;;-141.02;100.00;55844.97;5135425;27;20247;-83
2022/07/23 04:59:08;;;;;;;21.75;20.40;;;;;;;-141.02;100.00;55844.97;5135024;27;20737;-83
2022/07/23 05:01:35;;;;;;;21.58;20.17;;;;;;;-141.02;100.00;55844.97;5135266;27;20192;-83
2022/07/23 05:04:02;;;;;;;21.75;20.45;;;;;;;-141.02;100.00;55844.97;5135210;27;20247;-83
2022/07/23 05:06:30;;;;;;;20.95;19.65;;;;;;;-141.02;100.00;55844.97;5134903;27;20200;-83
2022/07/23 05:08:58;;;;;;;20.95;19.65;;;;;;;-141.02;100.00;55844.97;5135048;27;20316;-83
2022/07/23 05:11:25;;;;;;;20.85;19.55;;;;;;;-141.02;100.00;55844.97;5135145;27;20192;-83
2022/07/23 05:13:52;;;;;;;20.15;18.85;;;;;;;-141.02;100.00;55844.97;5135082;27;20253;-82
2022/07/23 05:16:19;;;;;;;20.52;19.13;;;;;;;-141.02;100.00;55844.97;5134643;27;20672;-83
2022/07/23 05:18:46;;;;;;;20.17;18.88;;;;;;;-141.02;100.00;55844.97;5134880;27;20276;-83
2022/07/23 05:21:13;;;;;;;20.63;19.33;;;;;;;-141.02;100.00;55844.97;5134565;27;20205;-83
2022/07/23 05:23:41;;;;;;;20.38;19.08;;;;;;;-141.02;100.00;55844.97;5134669;27;20596;-84
2022/07/23 05:26:08;;;;;;;19.90;18.60;;;;;;;-141.02;100.00;55844.97;5134455;27;20662;-83
2022/07/23 05:28:35;;;;;;;20.25;18.85;;;;;;;-141.02;100.00;55844.97;5135493;27;20272;-84
2022/07/23 05:31:03;;;;;;;19.75;18.45;;;;;;;-141.02;100.00;55844.97;5134688;27;20196;-83
2022/07/23 05:33:31;;;;;;;18.73;17.52;;;;;;;-141.02;100.00;55844.97;5134371;27;20659;-84
2022/07/23 05:36:02;;;;;;;19.45;18.15;;;;;;;-141.02;100.00;55844.97;5135512;27;20200;-84
2022/07/23 05:38:29;;;;;;;19.15;17.90;;;;;;;-141.02;100.00;55844.97;5134727;27;20185;-83
2022/07/23 05:40:58;;;;;;;19.23;18.02;;;;;;;-141.02;100.00;55844.97;5134594;27;20232;-84
2022/07/23 05:43:25;;;;;;;18.95;17.75;;;;;;;-141.02;100.00;55844.97;5134138;27;20227;-82
2022/07/23 05:45:52;;;;;;;18.85;17.65;;;;;;;-141.02;100.00;55844.97;5134209;27;20245;-83
2022/07/23 05:48:19;;;;;;;19.40;18.10;;;;;;;-141.02;100.00;55844.97;5134063;27;20200;-84
2022/07/23 05:50:47;;;;;;;20.95;19.60;;;;;;;-141.02;100.00;55844.97;5134460;27;20268;-82
2022/07/23 05:53:14;;;;;;;19.60;18.40;;;;;;;-141.02;100.00;55844.97;5134332;27;20570;-85
2022/07/23 05:55:41;;;;;;;19.17;17.98;;;;;;;-141.02;100.00;55844.97;5134319;27;20192;-84
2022/07/23 05:58:10;;;;;;;18.83;17.63;;;;;;;-141.02;100.00;55844.97;5134033;27;20248;-85
2022/07/23 06:00:37;;;;;;;19.20;18.00;;;;;;;-141.02;100.00;55844.97;5134378;27;20245;-82
2022/07/23 06:03:04;;;;;;;18.83;17.67;;;;;;;-141.02;100.00;55844.97;5134664;27;20284;-84
2022/07/23 06:05:31;;;;;;;20.75;19.40;;;;;;;-141.02;100.00;55844.97;5134307;27;20253;-83
2022/07/23 06:07:58;;;;;;;19.60;18.40;;;;;;;-141.02;100.00;55844.97;5134117;27;20188;-84
2022/07/23 06:10:25;;;;;;;19.05;17.95;;;;;;;-141.02;100.00;55844.97;5133921;27;20227;-83
2022/07/23 06:12:52;;;;;;;18.90;17.80;;;;;;;-141.02;100.00;55844.97;5136238;27;20216;-84
2022/07/23 06:15:21;;;;;;;19.40;18.20;;;;;;;-141.02;100.00;55844.97;5135991;27;20256;-83
2022/07/23 06:17:48;;;;;;;20.48;19.27;;;;;;;-141.02;100.00;55844.97;5136437;27;20611;-83
2022/07/23 06:20:15;;;;;;;19.73;18.52;;;;;;;-141.02;100.00;55844.97;5134194;27;20188;-83
2022/07/23 06:22:42;;;;;;;19.40;18.20;;;;;;;-141.02;100.00;55844.97;5136195;27;20203;-82
2022/07/23 06:25:09;;;;;;;19.48;18.17;;;;;;;-141.02;100.00;55844.97;5135854;27;20200;-83
2022/07/23 06:27:37;;;;;;;19.38;18.17;;;;;;;-141.02;100.00;55844.97;5135357;27;20197;-84
2022/07/23 06:30:05;;;;;;;19.38;18.17;;;;;;;-141.02;100.00;55844.97;5135605;27;20231;-82
2022/07/23 06:32:34;;;;;;;20.23;18.92;;;;;;;-141.02;100.00;55844.97;5134439;27;20231;-81
2022/07/23 06:35:01;;;;;;;19.45;18.25;;;;;;;-141.02;100.00;55844.97;5136146;27;20275;-83
2022/07/23 06:37:28;;;;;;;19.35;18.15;;;;;;;-141.02;100.00;55844.97;5134784;27;20192;-82
2022/07/23 06:39:55;;;;;;;19.23;18.02;;;;;;;-141.02;100.00;55844.97;5133980;27;20224;-84
2022/07/23 06:42:22;;;;;;;19.27;18.08;;;;;;;-141.02;100.00;55844.97;5135822;27;20192;-83
2022/07/23 06:44:49;;;;;;;19.25;18.05;;;;;;;-141.02;100.00;55844.97;5134497;27;20200;-83
2022/07/23 06:47:16;;;;;;;19.80;18.60;;;;;;;-141.02;100.00;55844.97;5133577;27;20241;-83
2022/07/23 06:49:45;;;;;;;19.52;18.33;;;;;;;-141.02;100.00;55844.97;5135265;27;20220;-83
2022/07/23 06:52:12;;;;;;;19.30;18.10;;;;;;;-141.02;100.00;55844.97;5135198;28;20632;-83
2022/07/23 06:54:39;;;;;;;19.85;18.65;;;;;;;-141.02;100.00;55844.97;5133195;27;20250;-83
2022/07/23 06:57:06;;;;;;;20.15;18.95;;;;;;;-141.02;100.00;55844.97;5134505;28;20270;-82
2022/07/23 06:59:36;;;;;;;19.88;18.67;;;;;;;-141.02;100.00;55844.97;5134653;27;20258;-83
2022/07/23 07:02:04;;;;;;;20.02;18.83;;;;;;;-141.02;100.00;55844.97;5134750;28;20277;-84
2022/07/23 07:04:31;;;;;;;19.38;18.17;;;;;;;-141.02;100.00;55844.97;5134229;28;20287;-84
2022/07/23 07:07:00;;;;;;;19.73;18.42;;;;;;;-141.02;100.00;55844.97;5133878;27;20222;-84
2022/07/23 07:09:27;;;;;;;19.15;17.95;;;;;;;-141.02;100.00;55844.97;5134197;28;20681;-84
2022/07/23 07:11:54;;;;;;;19.30;18.02;;;;;;;-141.02;100.00;55844.97;5133582;28;20235;-84
2022/07/23 07:14:21;;;;;;;18.88;17.67;;;;;;;-141.02;100.00;55844.97;5133746;28;20192;-84
2022/07/23 07:16:49;;;;;;;19.23;18.02;;;;;;;-141.02;100.00;55844.97;5134568;28;20272;-83
2022/07/23 07:19:16;;;;;;;19.30;18.10;;;;;;;-141.02;100.00;55844.97;5133579;27;20626;-83
2022/07/23 07:21:43;;;;;;;19.58;18.38;;;;;;;-141.02;100.00;55844.97;5134702;28;20192;-83
2022/07/23 07:24:12;;;;;;;19.25;18.05;;;;;;;-141.02;100.00;55844.97;5133905;28;20192;-83
2022/07/23 07:26:39;;;;;;;20.00;18.80;;;;;;;-141.02;100.00;55844.97;5133691;28;20698;-83
2022/07/23 07:29:07;;;;;;;19.42;18.23;;;;;;;-141.02;100.00;55844.97;5135210;28;20228;-84
2022/07/23 07:31:34;;;;;;;19.50;18.30;;;;;;;-141.02;100.00;55844.97;5134245;28;20269;-82
2022/07/23 07:34:01;;;;;;;19.33;18.13;;;;;;;-141.02;100.00;55844.97;5133998;28;20226;-83
2022/07/23 07:36:28;;;;;;;19.20;18.00;;;;;;;-141.02;100.00;55844.97;5133616;28;20189;-82
2022/07/23 07:38:55;;;;;;;19.50;18.30;;;;;;;-141.02;100.00;55844.97;5132818;28;20682;-84
2022/07/23 07:41:24;;;;;;;20.00;18.73;;;;;;;-141.02;100.00;55844.97;5133182;28;20225;-84
2022/07/23 07:43:51;;;;;;;19.17;17.98;;;;;;;-141.02;100.00;55844.97;5132689;28;20192;-84
2022/07/23 07:46:18;;;;;;;19.80;18.50;;;;;;;-141.02;100.00;55844.97;5132995;28;20201;-83
2022/07/23 07:48:45;;;;;;;19.77;18.50;;;;;;;-141.02;100.00;55844.97;5133629;28;20709;-84
2022/07/23 07:51:12;;;;;;;19.25;18.05;;;;;;;-141.02;100.00;55844.97;5133249;28;20224;-83
2022/07/23 07:53:39;;;;;;;19.58;18.27;;;;;;;-141.02;100.00;55844.97;5132987;27;20253;-83
2022/07/23 07:56:07;;;;;;;19.90;18.60;;;;;;;-141.02;100.00;55844.97;5133345;28;20198;-85
2022/07/23 07:58:35;;;;;;;19.70;18.40;;;;;;;-141.02;100.00;55844.97;5133291;28;20220;-83
2022/07/23 08:01:02;;;;;;;19.40;18.20;;;;;;;-141.02;100.00;55844.97;5133304;28;20197;-84
2022/07/23 08:03:30;;;;;;;19.35;18.15;;;;;;;-141.02;100.00;55844.97;5132637;28;20242;-84
2022/07/23 08:05:57;;;;;;;19.42;18.23;;;;;;;-141.02;100.00;55844.97;5132847;27;20280;-84
2022/07/23 08:08:24;;;;;;;19.80;18.60;;;;;;;-141.02;100.00;55844.97;5136267;27;20200;-83
2022/07/23 08:10:51;;;;;;;19.45;18.25;;;;;;;-141.02;100.00;55844.97;5137261;27;20251;-84
2022/07/23 08:13:18;;;;;;;19.92;18.73;;;;;;;-141.02;100.00;55844.97;5136683;27;20295;-84
2022/07/23 08:15:47;;;;;;;19.60;18.40;;;;;;;-141.02;100.00;55844.97;5136062;27;20670;-83
2022/07/23 08:18:14;;;;;;;19.88;18.67;;;;;;;-141.02;100.00;55844.97;5136807;27;20224;-83
2022/07/23 08:20:42;;;;;;;19.80;18.60;;;;;;;-141.02;100.00;55844.97;5136282;27;20660;-82
2022/07/23 08:23:10;;;;;;;20.02;18.83;;;;;;;-141.02;100.00;55844.97;5137003;27;20284;-85
2022/07/23 08:25:38;;;;;;;19.77;18.58;;;;;;;-141.02;100.00;55844.97;5136085;27;20284;-83
2022/07/23 08:28:10;;;;;;;20.23;19.02;;;;;;;-141.02;100.00;55844.97;5135791;27;20636;-83
2022/07/23 08:30:37;;;;;;;20.23;19.02;;;;;;;-141.02;100.00;55844.97;5135798;27;20252;-83
2022/07/23 08:33:10;;;;;;;20.75;19.50;;;;;;;-141.02;100.00;55844.97;5135991;27;20686;-82
2022/07/23 08:35:39;;;;;;;21.02;19.73;;;;;;;-141.02;100.00;55844.97;5136411;27;20184;-84
2022/07/23 08:38:09;;;;;;;20.27;19.08;;;;;;;-141.02;100.00;55844.97;5136242;27;20224;-83
2022/07/23 08:40:38;;;;;;;20.85;19.65;;;;;;;-141.02;100.00;55844.97;5135642;27;20236;-85
2022/07/23 08:43:07;;;;;;;21.48;20.17;;;;;;;-141.02;100.00;55844.97;5135707;27;20662;-84
2022/07/23 08:45:39;;;;;;;20.67;19.48;;;;;;;-141.02;100.00;55844.97;5136095;27;20230;-84
2022/07/23 08:48:09;;;;;;;20.30;19.10;;;;;;;-141.02;100.00;55844.97;5135716;27;20192;-83
2022/07/23 08:50:38;;;;;;;21.35;20.05;;;;;;;-141.02;100.00;55844.97;5135555;27;20230;-82
2022/07/23 08:53:08;;;;;;;21.50;20.20;;;;;;;-141.02;100.00;55844.97;5134725;27;20284;-83
2022/07/23 08:55:35;;;;;;;22.52;21.13;;;;;;;-141.02;100.00;55844.97;5135653;27;20196;-83
2022/07/23 08:58:02;;;;;;;20.88;19.63;;;;;;;-141.02;100.00;55844.97;5135570;27;20192;-83
2022/07/23 09:00:30;;;;;;;21.48;20.17;;;;;;;-141.02;100.00;55844.97;5135551;27;20239;-83
2022/07/23 09:02:57;;;;;;;23.58;22.17;;;;;;;-141.02;100.00;55844.97;5136495;27;20232;-85
2022/07/23 09:05:26;;;;;;;23.35;21.95;;;;;;;-141.02;100.00;55844.97;5135036;27;20197;-84
2022/07/23 09:08:13;;;;;;;20.70;19.40;;;;;;;-141.02;100.00;55844.97;5135090;27;20199;-83
2022/07/23 09:10:53;;;;;;;20.40;19.13;;;;;;;-141.02;100.00;55844.97;5134895;27;20686;-83
2022/07/23 09:13:32;;;;;;;20.75;19.45;;;;;;;-141.02;100.00;55844.97;5134823;27;20228;-83
2022/07/23 09:16:01;;;;;;;21.38;20.08;;;;;;;-141.02;100.00;55844.97;5134995;27;20230;-86
2022/07/23 09:18:38;;;;;;;21.05;19.75;;;;;;;-141.02;100.00;55844.97;5134774;27;20666;-83
2022/07/23 09:21:18;;;;;;;22.25;20.95;;;;;;;-141.02;100.00;55844.97;5134866;27;20673;-83
2022/07/23 09:23:48;;;;;;;24.33;22.90;;;;;;;-141.02;100.00;55844.97;5135467;27;20260;-83
2022/07/23 09:26:24;;;;;;;23.10;21.70;;;;;;;-141.02;100.00;55844.97;5135202;27;20240;-80
2022/07/23 09:28:54;;;;;;;21.45;20.15;;;;;;;-141.02;100.00;55844.97;5135016;27;20240;-85
2022/07/23 09:31:21;;;;;;;21.63;20.33;;;;;;;-141.02;100.00;55844.97;5134896;27;20224;-82
2022/07/23 09:33:48;;;;;;;21.35;20.05;;;;;;;-141.02;100.00;55844.97;5135286;27;20231;-83
2022/07/23 09:36:16;;;;;;;21.80;20.50;;;;;;;-141.02;100.00;55844.97;5134933;27;20636;-83
2022/07/23 09:38:51;;;;;;;21.13;19.83;;;;;;;-141.02;100.00;55844.97;5135722;27;20678;-83
2022/07/23 09:41:18;;;;;;;21.33;20.02;;;;;;;-141.02;100.00;55844.97;5134610;27;20234;-85
2022/07/23 09:43:45;;;;;;;21.27;20.02;;;;;;;-141.02;100.00;55844.97;5134901;27;20286;-85
2022/07/23 09:46:20;;;;;;;22.33;21.02;;;;;;;-141.02;100.00;55844.97;5134265;27;20196;-84
2022/07/23 09:48:48;;;;;;;22.48;21.15;;;;;;;-141.02;100.00;55844.97;5134998;27;20275;-85
2022/07/23 09:51:18;;;;;;;22.40;21.10;;;;;;;-141.02;100.00;55844.97;5134450;27;20310;-84
2022/07/23 09:53:45;;;;;;;22.92;21.52;;;;;;;-141.02;100.00;55844.97;5134627;27;20584;-83
2022/07/23 09:56:14;;;;;;;22.88;21.48;;;;;;;-141.02;100.00;55844.97;5134406;27;20581;-83
2022/07/23 09:58:46;;;;;;;21.27;19.98;;;;;;;-141.02;100.00;55844.97;5134103;27;20650;-84
2022/07/23 10:01:15;;;;;;;21.58;20.27;;;;;;;-141.02;100.00;55844.97;5134481;27;20227;-82
2022/07/23 10:03:43;;;;;;;20.65;19.42;;;;;;;-141.02;100.00;55844.97;5133987;27;20203;-83
2022/07/23 10:06:11;;;;;;;20.38;19.17;;;;;;;-141.02;100.00;55844.97;5133974;27;20199;-81
2022/07/23 10:08:42;;;;;;;20.85;19.55;;;;;;;-141.02;100.00;55844.97;5134447;27;20212;-82
2022/07/23 10:11:12;;;;;;;20.13;18.92;;;;;;;-141.02;100.00;55844.97;5134621;27;20585;-83
2022/07/23 10:13:54;;;;;;;21.45;20.15;;;;;;;-141.02;100.00;55844.97;5133992;27;20183;-84
2022/07/23 10:16:22;;;;;;;20.70;19.50;;;;;;;-141.02;100.00;55844.97;5134001;27;20195;-83
2022/07/23 10:18:50;;;;;;;20.70;19.50;;;;;;;-141.02;100.00;55844.97;5133695;27;20202;-83
2022/07/23 10:21:25;;;;;;;20.83;19.60;;;;;;;-141.02;100.00;55844.97;5133627;27;20196;-84
2022/07/23 10:24:11;;;;;;;21.83;20.52;;;;;;;-141.02;100.00;55844.97;5134004;27;20572;-83
2022/07/23 10:26:46;;;;;;;22.58;21.20;;;;;;;-141.02;100.00;55844.97;5134119;27;20545;-83
2022/07/23 10:29:30;;;;;;;22.92;21.55;;;;;;;-141.02;100.00;55844.97;5133437;27;20211;-89
2022/07/23 10:32:03;;;;;;;23.25;21.85;;;;;;;-141.02;100.00;55844.97;5133848;27;20275;-86
2022/07/23 10:34:42;;;;;;;22.88;21.48;;;;;;;-141.02;100.00;55844.97;5133637;27;20219;-85
2022/07/23 10:37:19;;;;;;;22.23;20.90;;;;;;;-141.02;100.00;55844.97;5133547;27;20198;-83
2022/07/23 10:39:48;;;;;;;22.63;21.23;;;;;;;-141.02;100.00;55844.97;5133857;27;20227;-83
2022/07/23 10:42:17;;;;;;;22.77;21.38;;;;;;;-141.02;100.00;55844.97;5133843;27;20200;-80
2022/07/23 10:44:47;;;;;;;23.52;22.10;;;;;;;-141.02;100.00;55844.97;5133461;27;20553;-87
2022/07/23 10:50:24;;;;;;;23.73;22.23;;;;;;;-141.02;100.00;55844.97;5133630;27;20225;-84
2022/07/23 10:53:19;;;;;;;23.38;21.88;;;;;;;-141.02;100.00;55844.97;5133527;27;20191;-85
2022/07/23 10:55:51;;;;;;;23.63;22.13;;;;;;;-141.02;100.00;55844.97;5085405;28;20666;-83
2022/07/23 10:58:47;;;;;;;23.30;21.83;;;;;;;-141.02;100.00;55844.97;5133344;28;20188;-76
2022/07/23 11:01:33;;;;;;;22.58;21.17;;;;;;;-141.02;100.00;55844.97;5133557;28;20670;-81
2022/07/23 11:04:00;;;;;;;23.25;21.75;;;;;;;-141.02;100.00;55844.97;5132262;28;20188;-82